createdAt,value
2022-12-19T00:03:24.680Z,20.55
2022-12-19T00:08:28.722Z,21.75
2022-12-19T00:13:35.288Z,21.88
2022-12-19T00:18:46.384Z,21.73
2022-12-19T00:23:50.834Z,20.92
2022-12-19T00:28:58.343Z,20.45
2022-12-19T00:34:02.705Z,20.65
2022-12-19T00:39:08.605Z,21.30
2022-12-19T00:44:16.707Z,22.35
2022-12-19T00:49:20.637Z,22.15
2022-12-19T00:54:24.576Z,21.85
2022-12-19T00:59:30.191Z,23.00
2022-12-19T01:04:38.374Z,23.17
2022-12-19T01:09:49.414Z,24.08
2022-12-19T01:15:02.302Z,22.50
2022-12-19T01:20:09.818Z,22.33
2022-12-19T01:25:14.040Z,22.50
2022-12-19T01:30:19.861Z,22.57
2022-12-19T01:35:25.368Z,23.08
2022-12-19T01:40:29.267Z,23.17
2022-12-19T01:45:43.521Z,23.50
2022-12-19T01:51:01.283Z,17.33
2022-12-19T01:56:08.562Z,23.10
2022-12-19T02:01:14.169Z,23.73
2022-12-19T02:06:19.316Z,21.33
2022-12-19T02:11:23.539Z,18.70
2022-12-19T02:16:36.636Z,21.55
2022-12-19T02:21:54.979Z,22.63
2022-12-19T02:27:13.791Z,21.73
2022-12-19T02:32:22.100Z,22.65
2022-12-19T02:37:30.718Z,23.27
2022-12-19T02:42:42.892Z,21.80
2022-12-19T02:47:48.947Z,21.45
2022-12-19T02:52:53.095Z,22.48
2022-12-19T02:58:09.166Z,22.77
2022-12-19T03:08:26.035Z,22.10
2022-12-19T03:13:32.458Z,22.85
2022-12-19T03:18:39.170Z,22.10
2022-12-19T03:23:44.187Z,22.48
2022-12-19T03:28:52.646Z,14.48
2022-12-19T03:34:00.996Z,22.73
2022-12-19T03:39:06.355Z,22.48
2022-12-19T03:44:13.297Z,22.05
2022-12-19T03:49:18.577Z,22.30
2022-12-19T03:54:26.866Z,22.52
2022-12-19T03:59:34.733Z,21.50
2022-12-19T04:04:41.980Z,21.30
2022-12-19T04:09:47.061Z,20.35
2022-12-19T04:14:51.481Z,21.67
2022-12-19T04:20:00.143Z,22.20
2022-12-19T04:25:05.114Z,21.23
2022-12-19T04:30:10.054Z,19.48
2022-12-19T04:35:15.908Z,21.23
2022-12-19T04:40:19.850Z,20.02
2022-12-19T04:45:23.760Z,19.95
2022-12-19T04:50:29.211Z,19.15
2022-12-19T04:55:33.091Z,19.38
2022-12-19T05:00:37.057Z,20.10
2022-12-19T05:05:42.375Z,19.95
2022-12-19T05:10:46.909Z,20.17
2022-12-19T05:15:57.507Z,20.20
2022-12-19T05:21:02.996Z,19.83
2022-12-19T05:26:07.306Z,20.85
2022-12-19T05:31:13.683Z,20.08
2022-12-19T05:36:20.203Z,20.70
2022-12-19T05:41:24.281Z,20.95
2022-12-19T05:46:28.487Z,19.42
2022-12-19T05:51:33.827Z,22.48
2022-12-19T05:56:37.734Z,20.35
2022-12-19T06:01:41.882Z,20.55
2022-12-19T06:06:47.344Z,21.33
2022-12-19T06:16:54.923Z,19.95
2022-12-19T06:22:00.899Z,14.48
2022-12-19T06:27:04.999Z,21.52
2022-12-19T06:32:09.133Z,19.88
2022-12-19T06:37:14.682Z,21.42
2022-12-19T06:42:24.744Z,21.10
2022-12-19T06:47:28.705Z,20.83
2022-12-19T06:52:33.958Z,20.75
2022-12-19T06:57:38.140Z,20.88
2022-12-19T07:02:43.683Z,21.70
2022-12-19T07:07:49.243Z,22.92
2022-12-19T07:17:56.960Z,20.48
2022-12-19T07:23:03.671Z,22.60
2022-12-19T07:28:08.140Z,21.13
2022-12-19T07:33:14.553Z,16.85
2022-12-19T07:38:23.837Z,21.83
2022-12-19T07:43:27.735Z,21.38
2022-12-19T07:48:32.446Z,24.13
2022-12-19T07:53:37.738Z,22.43
2022-12-19T07:58:41.718Z,22.35
2022-12-19T08:03:45.671Z,21.63
2022-12-19T08:08:51.019Z,22.00
2022-12-19T08:13:54.910Z,22.50
2022-12-19T08:18:58.911Z,22.88
2022-12-19T08:24:04.196Z,23.42
2022-12-19T08:29:08.152Z,22.02
2022-12-19T08:34:12.109Z,22.15
2022-12-19T08:39:17.656Z,21.83
2022-12-19T08:44:21.884Z,23.38
2022-12-19T08:49:25.794Z,21.30
2022-12-19T08:54:31.120Z,21.25
2022-12-19T08:59:35.082Z,21.42
2022-12-19T09:06:00.737Z,19.13
2022-12-19T09:10:07.579Z,21.03
2022-12-19T09:15:11.880Z,21.70
2022-12-19T09:20:22.798Z,21.10
2022-12-19T09:25:28.768Z,21.83
2022-12-19T09:30:32.748Z,22.85
2022-12-19T09:35:39.498Z,20.73
2022-12-19T09:40:54.223Z,22.67
2022-12-19T09:46:05.437Z,22.23
2022-12-19T09:51:12.961Z,21.23
2022-12-19T09:56:18.871Z,21.60
2022-12-19T10:01:26.053Z,23.23
2022-12-19T10:07:09.486Z,22.38
2022-12-19T10:12:44.610Z,18.40
2022-12-19T10:17:47.396Z,23.38
2022-12-19T10:22:58.190Z,22.30
2022-12-19T10:28:11.125Z,22.05
2022-12-19T10:33:20.669Z,21.70
2022-12-19T10:38:29.940Z,22.75
2022-12-19T10:43:44.775Z,21.50
2022-12-19T10:48:49.902Z,21.95
2022-12-19T10:53:58.328Z,21.80
2022-12-19T10:59:04.846Z,21.60
2022-12-19T11:04:27.867Z,22.92
2022-12-19T11:09:33.271Z,23.08
2022-12-19T11:20:00.930Z,22.58
2022-12-19T11:29:31.227Z,23.35
2022-12-19T11:30:46.255Z,21.33
2022-12-19T11:36:38.845Z,22.58
2022-12-19T11:41:47.279Z,22.58
2022-12-19T11:46:56.242Z,22.40
2022-12-19T11:52:05.424Z,21.70
2022-12-19T11:57:11.154Z,22.00
2022-12-19T12:02:43.375Z,21.45
2022-12-19T12:07:49.814Z,22.25
2022-12-19T12:25:01.411Z,21.38
2022-12-19T12:30:18.115Z,22.25
2022-12-19T12:31:42.786Z,22.15
2022-12-19T12:31:44.722Z,22.40
2022-12-19T12:37:52.552Z,23.42
2022-12-19T12:41:10.274Z,21.77
2022-12-19T12:46:17.396Z,23.50
2022-12-19T12:51:23.356Z,22.17
2022-12-19T12:56:27.659Z,23.45
2022-12-19T13:01:35.988Z,23.95
2022-12-19T13:06:43.401Z,22.90
2022-12-19T13:12:06.941Z,25.35
2022-12-19T13:17:11.441Z,24.63
2022-12-19T13:22:24.802Z,23.80
2022-12-19T13:27:40.665Z,23.33
2022-12-19T13:39:50.171Z,23.55
2022-12-19T13:43:50.230Z,23.23
2022-12-19T13:48:56.809Z,24.05
2022-12-19T13:54:02.055Z,24.67
2022-12-19T13:59:07.220Z,27.58
2022-12-19T14:04:13.149Z,25.88
2022-12-19T14:11:29.236Z,25.30
2022-12-19T14:15:12.782Z,25.35
2022-12-19T14:22:02.300Z,24.83
2022-12-19T14:28:17.340Z,26.40
2022-12-19T14:31:14.346Z,27.00
2022-12-19T14:36:26.093Z,25.67
2022-12-19T14:42:02.314Z,25.90
2022-12-19T14:53:33.986Z,26.33
2022-12-19T14:54:32.218Z,25.60
2022-12-19T14:58:54.885Z,25.58
2022-12-19T15:03:40.860Z,25.40
2022-12-19T15:08:45.388Z,26.45
2022-12-19T15:14:54.059Z,26.88
2022-12-19T15:19:34.477Z,26.50
2022-12-19T15:24:38.454Z,24.80
2022-12-19T15:29:44.349Z,24.55
2022-12-19T15:34:51.297Z,24.25
2022-12-19T15:39:55.789Z,25.48
2022-12-19T15:45:01.300Z,25.25
2022-12-19T15:55:20.832Z,25.10
2022-12-19T16:00:27.931Z,25.10
2022-12-19T16:05:31.988Z,25.13
2022-12-19T16:10:36.067Z,24.65
2022-12-19T16:15:41.480Z,25.48
2022-12-19T16:20:45.370Z,24.60
2022-12-19T16:25:51.560Z,24.85
2022-12-19T16:30:58.200Z,25.17
2022-12-19T16:36:05.264Z,25.42
2022-12-19T16:41:16.905Z,23.70
2022-12-19T16:46:23.880Z,26.20
2022-12-19T16:51:29.205Z,25.85
2022-12-19T16:56:35.736Z,25.83
2022-12-19T17:01:45.385Z,46.28
2022-12-19T17:06:49.948Z,26.63
2022-12-19T17:11:57.542Z,25.00
2022-12-19T17:17:03.077Z,23.35
2022-12-19T17:22:12.988Z,24.08
2022-12-19T17:27:19.331Z,24.95
2022-12-19T17:32:24.904Z,25.70
2022-12-19T17:37:29.006Z,24.20
2022-12-19T17:42:37.330Z,25.40
2022-12-19T17:47:43.311Z,26.45
2022-12-19T17:52:47.200Z,25.35
2022-12-19T17:57:51.594Z,26.73
2022-12-19T18:02:57.748Z,25.20
2022-12-19T18:08:01.749Z,26.50
2022-12-19T18:13:05.752Z,26.25
2022-12-19T18:18:14.674Z,24.45
2022-12-19T18:23:21.485Z,25.40
2022-12-19T18:28:25.380Z,25.13
2022-12-19T18:33:36.412Z,25.08
2022-12-19T18:38:40.322Z,26.38
2022-12-19T18:43:44.691Z,27.27
2022-12-19T18:48:50.288Z,26.27
2022-12-19T18:53:55.397Z,26.65
2022-12-19T18:59:03.791Z,26.30
2022-12-19T19:04:12.225Z,28.00
2022-12-19T19:09:17.765Z,27.30
2022-12-19T19:14:35.645Z,27.45
2022-12-19T19:19:41.244Z,27.02
2022-12-19T19:29:48.739Z,27.98
2022-12-19T19:34:55.769Z,27.13
2022-12-19T19:39:59.638Z,26.88
2022-12-19T19:45:03.488Z,27.00
2022-12-19T19:50:10.619Z,25.95
2022-12-19T19:55:16.069Z,26.80
2022-12-19T20:00:20.719Z,27.52
2022-12-19T20:05:26.094Z,27.77
2022-12-19T20:10:29.980Z,28.38
2022-12-19T20:15:34.445Z,27.00
2022-12-19T20:20:39.733Z,27.25
2022-12-19T20:25:43.868Z,27.05
2022-12-19T20:30:48.170Z,27.88
2022-12-19T20:35:56.941Z,26.92
2022-12-19T20:41:00.863Z,28.40
2022-12-19T20:46:06.363Z,28.73
2022-12-19T20:56:16.831Z,28.95
2022-12-19T21:01:22.679Z,30.02
2022-12-19T21:06:28.453Z,29.17
2022-12-19T21:16:37.019Z,30.30
2022-12-19T21:21:42.441Z,29.48
2022-12-19T21:26:47.603Z,29.98
2022-12-19T21:31:51.575Z,29.42
2022-12-19T21:36:57.349Z,28.65
2022-12-19T21:42:01.215Z,28.77
2022-12-19T21:47:05.221Z,30.20
2022-12-19T21:52:10.842Z,29.17
2022-12-19T21:57:14.732Z,30.35
2022-12-19T22:02:18.771Z,29.50
2022-12-19T22:07:24.116Z,30.27
2022-12-19T22:12:27.952Z,29.63
2022-12-19T22:17:31.840Z,30.45
2022-12-19T22:22:37.208Z,33.17
2022-12-19T22:27:41.092Z,30.30
2022-12-19T22:32:45.117Z,31.35
2022-12-19T22:37:50.400Z,31.85
2022-12-19T22:42:54.338Z,30.55
2022-12-19T22:47:58.274Z,30.33
2022-12-19T22:53:06.970Z,29.98
2022-12-19T22:58:15.051Z,29.70
2022-12-19T23:03:19.138Z,30.92
2022-12-19T23:08:24.676Z,31.10
2022-12-19T23:13:28.519Z,32.47
2022-12-19T23:18:32.441Z,32.63
2022-12-19T23:23:39.481Z,31.23
2022-12-19T23:28:43.467Z,31.05
2022-12-19T23:33:47.496Z,30.83
2022-12-19T23:38:55.523Z,31.92
2022-12-19T23:43:59.410Z,30.20
2022-12-19T23:49:03.313Z,32.60
2022-12-19T23:54:09.115Z,33.60
2022-12-19T23:59:13.060Z,34.72
